Time;durP1;ratioP1;P1;durP2;ratioP2;P2;SDS_P1;SDS_P2;PMS_P1;PMS_P2;Temp;Humidity;BMP_temperature;BMP_pressure;BME280_temperature;BME280_humidity;BME280_pressure;Samples;Min_cycle;Max_cycle;Signal;HPM_P1;HPM_P2
2023/05/24 00:00:11;;;;;;;5.00;1.85;;;;;;;7.33;81.88;102519.25;6248791;22;20514;-77
2023/05/24 00:02:40;;;;;;;6.03;2.20;;;;;;;7.29;81.82;102513.16;6246314;22;20416;-76
2023/05/24 00:05:09;;;;;;;4.22;2.13;;;;;;;7.23;82.22;102512.00;6249360;22;20017;-76
2023/05/24 00:07:37;;;;;;;9.10;1.98;;;;;;;7.18;82.34;102517.69;6248809;22;20048;-76
2023/05/24 00:10:05;;;;;;;5.63;2.15;;;;;;;7.16;82.30;102512.00;6249198;22;20016;-76
2023/05/24 00:12:32;;;;;;;5.93;2.15;;;;;;;7.14;82.37;102519.56;6249871;22;20016;-75
2023/05/24 00:14:58;;;;;;;3.85;1.95;;;;;;;7.11;82.93;102513.13;6250401;22;20087;-75
2023/05/24 00:17:26;;;;;;;7.90;2.22;;;;;;;7.08;83.16;102505.16;6249914;22;20020;-75
2023/05/24 00:19:52;;;;;;;12.18;2.95;;;;;;;7.05;83.39;102501.34;6248210;22;20043;-75
2023/05/24 00:22:19;;;;;;;7.32;2.40;;;;;;;6.95;83.26;102508.13;6250422;22;20020;-75
2023/05/24 00:24:47;;;;;;;8.32;2.17;;;;;;;6.90;83.59;102507.72;6250135;22;20019;-75
2023/05/24 00:27:14;;;;;;;13.43;3.08;;;;;;;6.86;83.82;102509.56;6250214;22;20442;-75
2023/05/24 00:29:41;;;;;;;6.68;2.22;;;;;;;6.83;84.08;102510.31;6248162;22;20025;-76
2023/05/24 00:32:07;;;;;;;4.78;2.08;;;;;;;6.78;84.06;102508.81;6249663;22;20458;-75
2023/05/24 00:34:35;;;;;;;6.38;2.35;;;;;;;6.76;84.08;102497.81;6248195;22;20021;-75
2023/05/24 00:37:03;;;;;;;5.82;2.30;;;;;;;6.76;84.13;102497.06;6250169;22;20017;-76
2023/05/24 00:39:29;;;;;;;6.55;2.17;;;;;;;6.74;84.05;102496.69;6248427;22;20028;-75
2023/05/24 00:41:56;;;;;;;12.63;2.50;;;;;;;6.71;84.66;102494.75;6250581;22;20021;-75
2023/05/24 00:44:22;;;;;;;5.63;2.20;;;;;;;6.67;84.74;102495.50;6247920;22;20482;-76
2023/05/24 00:46:49;;;;;;;5.80;2.33;;;;;;;6.64;84.08;102490.94;6250111;22;20025;-75
2023/05/24 00:49:16;;;;;;;8.90;2.22;;;;;;;6.63;84.10;102491.31;6248206;22;20475;-75
2023/05/24 00:51:44;;;;;;;9.73;2.58;;;;;;;6.61;84.05;102482.97;6249926;22;20023;-75
2023/05/24 00:54:13;;;;;;;7.78;2.30;;;;;;;6.60;84.35;102484.09;6248214;22;20092;-75
2023/05/24 00:56:42;;;;;;;9.23;2.72;;;;;;;6.56;85.11;102480.69;6249614;22;20012;-76
2023/05/24 00:59:08;;;;;;;2.60;1.92;;;;;;;6.54;85.11;102482.94;6249238;22;20020;-76
2023/05/24 01:01:37;;;;;;;10.23;2.30;;;;;;;6.52;85.18;102483.31;6248177;22;20398;-76
2023/05/24 01:04:04;;;;;;;6.95;2.53;;;;;;;6.46;85.91;102478.72;6250410;22;20048;-76
2023/05/24 01:06:45;;;;;;;4.63;2.60;;;;;;;6.42;86.27;102478.69;6250027;22;20075;-75
2023/05/24 01:09:24;;;;;;;8.55;2.20;;;;;;;6.41;85.81;102479.81;6249681;22;20020;-75
2023/05/24 01:12:06;;;;;;;12.20;2.55;;;;;;;6.40;86.30;102480.94;6250133;22;20020;-75
2023/05/24 01:15:19;;;;;;;9.15;2.55;;;;;;;6.40;85.72;102480.22;6249342;22;20450;-75
2023/05/24 01:17:54;;;;;;;5.38;2.33;;;;;;;6.35;86.50;102478.69;6248530;22;20027;-75
2023/05/24 01:20:22;;;;;;;8.15;2.75;;;;;;;6.33;86.46;102481.69;6248421;22;20027;-76
2023/05/24 01:23:12;;;;;;;13.02;2.65;;;;;;;6.35;86.92;102489.25;6249546;22;20157;-75
2023/05/24 01:26:13;;;;;;;5.95;2.33;;;;;;;6.35;87.34;102483.97;6249893;22;20087;-76
2023/05/24 01:28:42;;;;;;;7.90;2.35;;;;;;;6.35;88.30;102486.59;6249528;22;20019;-76
2023/05/24 01:31:11;;;;;;;9.15;2.85;;;;;;;6.33;88.92;102494.16;6247630;22;20028;-75
2023/05/24 01:33:41;;;;;;;7.15;3.08;;;;;;;6.33;89.31;102494.91;6247950;22;20052;-76
2023/05/24 01:36:08;;;;;;;9.13;2.55;;;;;;;6.35;89.47;102499.84;6248037;22;20040;-75
2023/05/24 01:38:36;;;;;;;7.88;2.55;;;;;;;6.33;89.35;102488.88;6249652;22;20016;-76
2023/05/24 01:41:15;;;;;;;10.20;2.67;;;;;;;6.33;89.03;102483.56;6250143;22;20021;-75
2023/05/24 01:44:00;;;;;;;13.55;2.80;;;;;;;6.34;89.16;102485.84;6247620;22;20108;-77
2023/05/24 01:46:36;;;;;;;13.45;3.15;;;;;;;6.35;89.86;102483.97;6249905;22;20542;-77
2023/05/24 01:49:21;;;;;;;12.05;2.92;;;;;;;6.34;90.17;102488.50;6248262;22;20472;-77
2023/05/24 01:51:52;;;;;;;9.35;2.60;;;;;;;6.34;91.71;102482.44;6249636;22;20031;-76
2023/05/24 01:54:22;;;;;;;7.30;3.03;;;;;;;6.33;91.94;102476.41;6249904;22;20016;-76
2023/05/24 01:56:52;;;;;;;11.57;3.28;;;;;;;6.34;92.28;102477.91;6249378;22;20455;-77
2023/05/24 01:59:21;;;;;;;10.95;2.72;;;;;;;6.34;92.76;102477.91;6247796;22;20021;-77
2023/05/24 02:01:48;;;;;;;9.60;2.15;;;;;;;6.35;93.15;102473.38;6249774;22;20462;-77
2023/05/24 02:04:16;;;;;;;14.43;3.08;;;;;;;6.37;92.85;102488.88;6247978;22;20439;-76
2023/05/24 02:06:43;;;;;;;13.73;2.90;;;;;;;6.38;93.67;102480.59;6247927;22;20144;-77
2023/05/24 02:09:10;;;;;;;12.77;2.88;;;;;;;6.39;94.08;102489.28;6248006;22;20439;-77
2023/05/24 02:11:36;;;;;;;10.27;3.00;;;;;;;6.40;93.66;102477.56;6248936;22;20008;-76
2023/05/24 02:14:03;;;;;;;9.50;3.10;;;;;;;6.39;94.01;102473.41;6248263;22;20020;-76
2023/05/24 02:16:29;;;;;;;11.73;3.22;;;;;;;6.39;93.89;102479.47;6248236;22;20024;-77
2023/05/24 02:18:56;;;;;;;10.32;3.25;;;;;;;6.40;93.67;102474.94;6248539;22;20036;-75
2023/05/24 02:21:24;;;;;;;12.25;3.67;;;;;;;6.39;93.58;102474.16;6249430;22;20047;-76
2023/05/24 02:23:50;;;;;;;9.45;3.28;;;;;;;6.38;93.76;102471.88;6249576;22;20048;-75
2023/05/24 02:26:20;;;;;;;7.72;2.78;;;;;;;6.38;93.79;102469.25;6248994;22;20083;-75
2023/05/24 02:28:47;;;;;;;9.65;3.15;;;;;;;6.38;93.77;102466.59;6249207;22;20156;-75
2023/05/24 02:31:14;;;;;;;7.57;2.92;;;;;;;6.36;93.79;102472.25;6247578;22;20096;-75
2023/05/24 02:33:40;;;;;;;12.30;3.35;;;;;;;6.34;94.20;102469.97;6247648;22;20020;-76
2023/05/24 02:36:07;;;;;;;7.63;2.90;;;;;;;6.34;94.81;102472.63;6249493;22;20446;-75
2023/05/24 02:38:33;;;;;;;6.03;2.63;;;;;;;6.34;94.58;102463.94;6249644;22;20454;-75
2023/05/24 02:41:00;;;;;;;17.88;4.22;;;;;;;6.31;94.72;102468.06;6249463;22;20484;-75
2023/05/24 02:43:27;;;;;;;12.00;3.45;;;;;;;6.29;94.52;102474.84;6249427;22;20036;-75
2023/05/24 02:45:53;;;;;;;9.27;3.00;;;;;;;6.28;94.16;102475.97;6222295;22;20012;-75
2023/05/24 02:48:20;;;;;;;13.57;2.72;;;;;;;6.26;94.04;102472.94;6249527;22;20587;-76
2023/05/24 02:50:47;;;;;;;15.85;4.30;;;;;;;6.27;94.47;102477.09;6249244;22;20024;-75
2023/05/24 02:53:13;;;;;;;8.85;2.83;;;;;;;6.25;94.31;102474.06;6247715;22;20028;-75
2023/05/24 02:55:42;;;;;;;7.65;2.42;;;;;;;6.26;94.07;102480.88;6247250;22;20051;-75
2023/05/24 02:58:11;;;;;;;10.27;3.30;;;;;;;6.24;94.53;102481.25;6248620;22;20024;-77
2023/05/24 03:00:37;;;;;;;8.75;3.35;;;;;;;6.23;94.31;102477.06;6247467;22;20020;-77
2023/05/24 03:03:04;;;;;;;15.35;3.30;;;;;;;6.21;93.85;102487.25;6247811;22;20021;-75
2023/05/24 03:05:31;;;;;;;17.75;3.13;;;;;;;6.22;94.03;102486.13;6249408;22;20013;-75
2023/05/24 03:07:58;;;;;;;7.38;2.65;;;;;;;6.22;94.63;102482.72;6247826;22;20439;-75
2023/05/24 03:10:24;;;;;;;12.02;2.97;;;;;;;6.20;94.67;102483.09;6246907;22;20075;-74
2023/05/24 03:12:51;;;;;;;14.43;3.22;;;;;;;6.21;95.08;102481.22;6249114;22;20060;-75
2023/05/24 03:15:18;;;;;;;8.07;3.15;;;;;;;6.18;95.35;102482.69;6247303;22;20012;-75
2023/05/24 03:17:45;;;;;;;11.90;3.25;;;;;;;6.18;95.29;102482.69;6247250;22;20021;-76
2023/05/24 03:20:12;;;;;;;11.07;3.05;;;;;;;6.14;95.18;102481.16;6247434;22;20473;-76
2023/05/24 03:22:38;;;;;;;8.02;3.25;;;;;;;6.14;95.13;102478.50;6247886;22;20020;-76
2023/05/24 03:25:07;;;;;;;13.93;2.95;;;;;;;6.12;95.05;102470.94;6247155;22;20481;-76
2023/05/24 03:27:35;;;;;;;10.60;2.85;;;;;;;6.11;94.95;102471.31;6247402;22;20026;-76
2023/05/24 03:30:02;;;;;;;6.88;3.08;;;;;;;6.08;94.86;102470.16;6247768;22;20032;-76
2023/05/24 03:32:34;;;;;;;13.45;3.67;;;;;;;6.06;94.66;102461.81;6247390;22;20448;-76
2023/05/24 03:35:01;;;;;;;9.65;3.15;;;;;;;6.06;94.77;102455.78;6248260;22;20110;-77
2023/05/24 03:37:28;;;;;;;8.80;3.38;;;;;;;6.05;94.51;102451.63;6247326;22;20052;-76
2023/05/24 03:39:54;;;;;;;8.73;3.25;;;;;;;6.02;94.59;102458.38;6246869;22;20020;-76
2023/05/24 03:42:44;;;;;;;14.82;3.33;;;;;;;5.98;94.21;102461.03;6240484;22;20059;-76
2023/05/24 03:45:11;;;;;;;6.97;2.95;;;;;;;5.97;94.35;102459.50;6246973;22;20307;-76
2023/05/24 03:47:37;;;;;;;14.77;3.75;;;;;;;5.97;94.37;102464.78;6248229;22;20024;-76
2023/05/24 03:50:05;;;;;;;12.77;3.28;;;;;;;5.97;94.01;102464.78;6248601;22;20324;-75
2023/05/24 03:52:31;;;;;;;17.58;3.45;;;;;;;5.99;94.79;102467.84;6248443;22;20027;-77
2023/05/24 03:54:58;;;;;;;9.00;3.28;;;;;;;6.01;95.10;102470.84;6248363;22;20469;-77
2023/05/24 03:57:25;;;;;;;10.48;3.50;;;;;;;6.02;95.23;102461.03;6250035;22;20051;-77
2023/05/24 03:59:51;;;;;;;11.43;3.10;;;;;;;6.05;95.53;102462.94;6248565;22;20101;-75
2023/05/24 04:02:18;;;;;;;9.88;3.10;;;;;;;6.08;95.25;102466.75;6223164;22;20082;-75
2023/05/24 04:04:44;;;;;;;11.43;3.20;;;;;;;6.07;95.16;102460.69;6248643;22;20024;-75
2023/05/24 04:07:14;;;;;;;6.45;2.80;;;;;;;6.13;95.05;102461.13;6248142;22;20103;-75
2023/05/24 04:09:41;;;;;;;7.82;2.80;;;;;;;6.18;95.03;102466.84;6249816;22;20024;-75
2023/05/24 04:12:07;;;;;;;12.68;3.72;;;;;;;6.21;95.73;102470.63;6250157;22;20020;-75
2023/05/24 04:14:34;;;;;;;4.88;3.00;;;;;;;6.25;95.93;102464.25;6248497;22;20447;-75
2023/05/24 04:17:03;;;;;;;7.38;3.20;;;;;;;6.28;95.61;102462.75;6248692;22;20076;-75
2023/05/24 04:19:30;;;;;;;10.82;3.53;;;;;;;6.32;95.69;102458.25;6223240;22;20100;-75
2023/05/24 04:21:58;;;;;;;9.52;3.42;;;;;;;6.40;95.73;102456.41;6250042;22;20036;-75
2023/05/24 04:24:25;;;;;;;15.95;3.60;;;;;;;6.46;95.54;102454.91;6250264;22;20060;-75
2023/05/24 04:26:51;;;;;;;12.23;3.17;;;;;;;6.53;95.42;102463.66;6250224;22;20016;-75
2023/05/24 04:29:18;;;;;;;7.15;3.28;;;;;;;6.60;95.60;102460.28;6248204;22;20021;-75
2023/05/24 04:31:47;;;;;;;12.18;3.67;;;;;;;6.68;95.84;102467.16;6248080;22;20020;-75
2023/05/24 04:34:14;;;;;;;16.33;3.50;;;;;;;6.79;95.55;102464.56;6248055;22;20027;-75
2023/05/24 04:36:41;;;;;;;11.25;3.42;;;;;;;6.89;95.73;102477.81;6222316;22;20020;-75
2023/05/24 04:39:08;;;;;;;24.10;4.18;;;;;;;7.16;96.43;102466.97;6247776;22;20103;-75
2023/05/24 04:41:36;;;;;;;14.43;3.75;;;;;;;7.82;96.04;102462.16;6248366;22;20013;-75
2023/05/24 04:44:02;;;;;;;16.45;4.10;;;;;;;8.13;94.31;102471.25;6250306;22;20020;-75
2023/05/24 04:46:30;;;;;;;12.65;3.47;;;;;;;8.20;94.18;102466.69;6250075;22;20091;-75
2023/05/24 04:48:56;;;;;;;17.30;3.92;;;;;;;8.70;93.35;102471.94;6250352;22;20016;-75
2023/05/24 04:51:23;;;;;;;13.55;4.15;;;;;;;9.33;91.60;102470.13;6249361;22;20017;-75
2023/05/24 04:53:49;;;;;;;13.07;3.72;;;;;;;9.91;89.38;102469.38;6249765;22;20425;-75
2023/05/24 04:56:16;;;;;;;18.92;4.05;;;;;;;10.70;86.26;102466.72;6247623;22;20043;-76
2023/05/24 04:58:42;;;;;;;15.55;4.10;;;;;;;11.65;81.67;102471.91;6249954;22;20036;-76
2023/05/24 05:01:09;;;;;;;8.90;3.55;;;;;;;13.27;75.06;102477.34;6249775;22;20013;-76
2023/05/24 05:03:36;;;;;;;13.35;3.53;;;;;;;14.75;68.50;102477.47;6250195;22;20016;-76
2023/05/24 05:06:02;;;;;;;14.55;4.28;;;;;;;15.81;64.02;102481.53;6249788;22;20017;-75
2023/05/24 05:08:29;;;;;;;15.45;3.60;;;;;;;16.51;60.22;102485.66;6249794;22;20024;-75
2023/05/24 05:10:56;;;;;;;14.30;5.07;;;;;;;17.04;57.85;102485.69;6250191;22;20009;-77
2023/05/24 05:13:23;;;;;;;13.02;4.05;;;;;;;17.44;56.86;102474.91;6249819;22;20051;-74
2023/05/24 05:15:50;;;;;;;12.77;4.28;;;;;;;17.90;54.66;102485.78;6249927;22;20071;-74
2023/05/24 05:18:17;;;;;;;14.25;3.90;;;;;;;18.43;53.48;102488.13;6248038;22;20462;-74
2023/05/24 05:20:43;;;;;;;12.23;3.65;;;;;;;18.74;52.27;102487.97;6249584;22;20012;-75
2023/05/24 05:23:10;;;;;;;13.55;4.20;;;;;;;19.06;51.09;102491.88;6247677;22;20374;-76
2023/05/24 05:25:37;;;;;;;12.15;3.88;;;;;;;19.27;50.80;102488.16;6248195;22;20017;-75
2023/05/24 05:28:03;;;;;;;12.63;3.70;;;;;;;19.60;49.68;102494.31;6247980;22;20451;-75
2023/05/24 05:30:30;;;;;;;18.65;4.00;;;;;;;19.58;49.02;102496.00;6248526;22;20013;-77
2023/05/24 05:32:56;;;;;;;15.20;3.72;;;;;;;19.51;49.31;102491.69;6250771;22;20096;-74
2023/05/24 05:35:23;;;;;;;15.07;3.75;;;;;;;19.74;48.83;102492.88;6249654;22;20451;-77
2023/05/24 05:37:50;;;;;;;11.52;3.40;;;;;;;19.67;48.01;102498.63;6249503;22;20079;-75
2023/05/24 05:40:16;;;;;;;11.75;3.30;;;;;;;19.53;48.34;102502.78;6250431;22;20099;-75
2023/05/24 05:42:43;;;;;;;8.35;3.58;;;;;;;19.37;48.38;102505.06;6249215;22;20036;-74
2023/05/24 05:45:10;;;;;;;11.15;3.55;;;;;;;19.25;49.52;102504.06;6250185;22;20431;-77
2023/05/24 05:47:36;;;;;;;17.15;3.35;;;;;;;18.97;49.28;102498.06;6251063;22;20411;-77
2023/05/24 05:50:03;;;;;;;10.80;3.40;;;;;;;18.59;50.61;102498.59;6249833;22;20012;-78
2023/05/24 05:52:30;;;;;;;15.25;3.70;;;;;;;18.66;50.67;102501.00;6249202;22;20454;-80
2023/05/24 05:54:58;;;;;;;9.63;3.67;;;;;;;18.30;50.57;102502.53;6250480;22;20084;-78
2023/05/24 05:57:24;;;;;;;13.10;3.50;;;;;;;17.89;51.24;102505.81;6249845;22;20482;-78
2023/05/24 05:59:51;;;;;;;13.05;3.63;;;;;;;17.68;52.49;102499.34;6249050;22;20103;-78
2023/05/24 06:02:18;;;;;;;12.55;4.22;;;;;;;17.26;52.93;102499.06;6250395;22;20037;-80
2023/05/24 06:04:45;;;;;;;14.55;3.83;;;;;;;17.18;53.63;102495.16;6250151;22;20019;-80
2023/05/24 06:07:12;;;;;;;15.43;3.78;;;;;;;17.29;54.07;102496.22;6250842;22;20024;-81
2023/05/24 06:09:39;;;;;;;8.15;3.47;;;;;;;16.84;54.57;102493.34;6250377;22;20016;-80
2023/05/24 06:12:05;;;;;;;12.10;3.55;;;;;;;16.51;56.10;102493.72;6248372;22;20101;-80
2023/05/24 06:14:33;;;;;;;12.35;3.90;;;;;;;16.32;56.83;102495.56;6250870;22;20040;-80
2023/05/24 06:16:59;;;;;;;12.95;3.47;;;;;;;16.07;57.21;102492.19;6250613;22;20028;-80
2023/05/24 06:19:26;;;;;;;17.02;3.72;;;;;;;16.01;57.71;102489.31;6249815;22;20013;-78
2023/05/24 06:21:52;;;;;;;15.18;3.55;;;;;;;16.10;57.67;102492.09;6251056;22;20012;-78
2023/05/24 06:24:20;;;;;;;11.05;3.28;;;;;;;16.14;57.40;102502.72;6250429;22;20016;-81
2023/05/24 06:26:47;;;;;;;11.65;3.85;;;;;;;16.03;56.89;102505.75;6250747;22;20017;-81
2023/05/24 06:29:14;;;;;;;10.50;3.03;;;;;;;15.77;57.79;102501.63;6250489;22;20012;-81
2023/05/24 06:31:42;;;;;;;11.65;3.67;;;;;;;15.77;58.26;102504.31;6250891;22;20023;-80
2023/05/24 06:34:08;;;;;;;11.27;3.70;;;;;;;15.58;58.30;102508.75;6249593;22;20405;-81
2023/05/24 06:36:40;;;;;;;15.52;3.20;;;;;;;15.65;58.91;102509.28;6249366;22;20099;-79
2023/05/24 06:39:09;;;;;;;12.10;3.22;;;;;;;15.73;57.22;102507.13;6250740;22;20073;-79
2023/05/24 06:41:37;;;;;;;11.13;3.67;;;;;;;15.74;58.09;102505.19;6250907;22;20087;-81
2023/05/24 06:44:04;;;;;;;10.13;3.08;;;;;;;15.54;58.04;102519.59;6250636;22;20013;-81
2023/05/24 06:46:31;;;;;;;11.52;3.38;;;;;;;15.52;57.58;102508.53;6250964;22;20039;-78
2023/05/24 06:48:58;;;;;;;11.70;3.20;;;;;;;15.58;57.43;102512.19;6250391;22;20016;-78
2023/05/24 06:51:25;;;;;;;11.40;3.08;;;;;;;15.43;57.90;102513.03;6250223;22;20095;-83
2023/05/24 06:53:51;;;;;;;10.15;3.20;;;;;;;15.52;57.73;102510.44;6250754;22;20425;-79
2023/05/24 06:56:18;;;;;;;10.27;3.58;;;;;;;15.75;57.31;102514.75;6249978;22;20084;-78
2023/05/24 06:58:45;;;;;;;10.65;3.25;;;;;;;15.84;57.58;102520.22;6250644;22;20032;-78
2023/05/24 07:01:13;;;;;;;9.45;3.10;;;;;;;15.87;57.49;102524.72;6250167;22;20016;-77
2023/05/24 07:03:40;;;;;;;12.15;3.15;;;;;;;15.72;57.83;102518.28;6249801;22;20013;-78
2023/05/24 07:06:08;;;;;;;17.13;3.50;;;;;;;15.47;58.09;102519.78;6250273;22;20005;-78
2023/05/24 07:08:35;;;;;;;9.63;2.92;;;;;;;15.57;58.30;102524.13;6250873;22;20013;-79
2023/05/24 07:11:02;;;;;;;11.45;3.25;;;;;;;15.54;57.75;102521.50;6250722;22;20390;-80
2023/05/24 07:13:29;;;;;;;11.25;3.63;;;;;;;15.33;57.68;102523.66;6250023;22;20013;-80
2023/05/24 07:15:58;;;;;;;10.05;3.30;;;;;;;15.37;58.52;102523.53;6248572;22;20434;-79
2023/05/24 07:18:25;;;;;;;9.95;3.17;;;;;;;15.60;57.79;102519.78;6250290;22;21140;-79
2023/05/24 07:20:52;;;;;;;7.85;2.75;;;;;;;15.51;58.02;102517.00;6249339;22;20427;-80
2023/05/24 07:23:19;;;;;;;9.23;2.88;;;;;;;15.37;57.68;102520.88;6250089;22;20013;-79
2023/05/24 07:25:45;;;;;;;9.35;3.03;;;;;;;15.29;57.83;102516.88;6250537;22;20023;-79
2023/05/24 07:28:14;;;;;;;10.50;3.20;;;;;;;15.29;57.93;102517.63;6249603;22;20421;-80
2023/05/24 07:30:40;;;;;;;10.18;3.45;;;;;;;15.37;57.86;102520.88;6248409;22;20023;-78
2023/05/24 07:33:07;;;;;;;12.40;3.10;;;;;;;15.28;57.77;102518.06;6249770;22;20446;-77
2023/05/24 07:35:33;;;;;;;8.35;2.83;;;;;;;15.16;58.37;102524.19;6250150;22;20020;-77
2023/05/24 07:38:00;;;;;;;11.90;3.33;;;;;;;15.02;58.69;102531.47;6249717;22;20039;-77
2023/05/24 07:40:27;;;;;;;7.47;3.42;;;;;;;15.08;59.03;102525.56;6248270;22;20067;-77
2023/05/24 07:42:53;;;;;;;10.45;2.80;;;;;;;15.58;58.51;102527.56;6250305;22;20046;-77
2023/05/24 07:45:20;;;;;;;14.25;3.55;;;;;;;15.91;57.25;102528.03;6249387;22;20079;-77
2023/05/24 07:47:46;;;;;;;11.55;3.33;;;;;;;16.18;56.45;102532.91;6249859;22;20021;-77
2023/05/24 07:50:13;;;;;;;9.63;3.20;;;;;;;15.89;56.36;102531.16;6248037;22;20447;-77
2023/05/24 07:52:40;;;;;;;15.20;3.10;;;;;;;16.14;55.91;102532.25;6248385;22;20460;-76
2023/05/24 07:55:07;;;;;;;8.50;3.20;;;;;;;16.50;54.99;102526.41;6249530;22;20024;-76
2023/05/24 07:57:33;;;;;;;11.70;3.55;;;;;;;16.95;54.08;102528.69;6249800;22;20016;-76
2023/05/24 08:00:07;;;;;;;10.05;3.28;;;;;;;17.26;52.91;102526.72;6249680;22;20500;-76
2023/05/24 08:02:37;;;;;;;9.02;3.17;;;;;;;17.42;52.37;102528.44;6250218;22;20443;-77
2023/05/24 08:05:04;;;;;;;11.52;2.92;;;;;;;17.25;52.39;102525.22;6248289;22;20024;-77
2023/05/24 08:07:30;;;;;;;9.98;3.22;;;;;;;16.82;52.19;102526.06;6248476;22;20017;-77
2023/05/24 08:09:57;;;;;;;10.07;3.30;;;;;;;16.55;53.42;102521.25;6248158;22;20016;-77
2023/05/24 08:12:24;;;;;;;9.73;3.55;;;;;;;16.33;54.04;102532.00;6249445;22;20012;-77
2023/05/24 08:14:51;;;;;;;12.48;3.47;;;;;;;16.23;54.87;102529.66;6249149;22;20024;-77
2023/05/24 08:17:17;;;;;;;12.35;3.55;;;;;;;16.42;54.12;102528.59;6249400;22;20040;-77
2023/05/24 08:19:44;;;;;;;9.02;3.33;;;;;;;16.61;53.74;102527.56;6249811;22;20016;-78
2023/05/24 08:22:11;;;;;;;5.88;2.83;;;;;;;16.78;53.49;102522.78;6249259;22;20012;-78
2023/05/24 08:24:38;;;;;;;10.60;3.00;;;;;;;17.20;53.09;102530.44;6249538;22;20028;-77
2023/05/24 08:27:04;;;;;;;9.27;3.20;;;;;;;17.60;51.76;102528.47;6249618;22;20055;-77
2023/05/24 08:29:31;;;;;;;9.88;2.92;;;;;;;17.87;51.08;102525.13;6249264;22;20425;-77
2023/05/24 08:31:59;;;;;;;6.47;2.78;;;;;;;18.27;49.92;102532.34;6249954;22;20063;-77
2023/05/24 08:34:27;;;;;;;8.05;3.03;;;;;;;18.67;49.08;102517.94;6250276;22;20032;-77
2023/05/24 08:36:53;;;;;;;9.05;3.13;;;;;;;18.16;49.57;102518.56;6249441;22;20016;-86
2023/05/24 08:39:20;;;;;;;10.90;3.22;;;;;;;17.95;50.38;102526.34;6249177;22;20068;-82
2023/05/24 08:41:47;;;;;;;11.75;3.17;;;;;;;17.81;50.11;102515.38;6249644;22;20039;-81
2023/05/24 08:44:28;;;;;;;9.02;3.35;;;;;;;17.34;60.49;102514.50;6250606;22;20021;-81
2023/05/24 08:46:57;;;;;;;8.77;3.13;;;;;;;17.67;61.16;102517.44;6251483;22;20371;-79
2023/05/24 08:49:24;;;;;;;12.32;3.60;;;;;;;18.18;58.44;102519.59;6251012;22;20013;-77
2023/05/24 08:51:51;;;;;;;9.23;3.10;;;;;;;18.46;53.71;102520.31;6251053;22;20013;-78
2023/05/24 08:54:19;;;;;;;13.30;3.03;;;;;;;18.50;51.32;102504.75;6250778;22;20096;-78
2023/05/24 08:56:47;;;;;;;7.57;3.00;;;;;;;18.43;50.24;102515.09;6250802;22;20092;-77
2023/05/24 08:59:14;;;;;;;8.82;3.25;;;;;;;18.08;50.09;102511.97;6250081;22;20012;-78
2023/05/24 09:01:41;;;;;;;8.75;3.17;;;;;;;17.78;50.67;102511.66;6250942;22;20071;-77
2023/05/24 09:04:08;;;;;;;9.50;3.15;;;;;;;17.58;50.47;102514.72;6250714;22;20020;-77
2023/05/24 09:06:35;;;;;;;10.60;3.20;;;;;;;17.66;51.54;102509.81;6251090;22;20374;-81
2023/05/24 09:09:03;;;;;;;10.93;3.45;;;;;;;17.71;51.03;102511.19;6251182;22;20024;-83
2023/05/24 09:11:30;;;;;;;6.20;2.45;;;;;;;17.64;50.08;102523.69;6249024;22;20071;-81
2023/05/24 09:13:59;;;;;;;9.52;3.40;;;;;;;17.52;50.05;102516.50;6250800;22;20107;-80
2023/05/24 09:16:25;;;;;;;11.65;3.03;;;;;;;17.93;50.28;102519.91;6250998;22;20013;-79
2023/05/24 09:18:52;;;;;;;10.77;3.22;;;;;;;18.29;48.60;102516.47;6251356;22;20016;-79
2023/05/24 09:21:18;;;;;;;13.00;3.22;;;;;;;18.00;48.31;102524.97;6250714;22;20016;-80
2023/05/24 09:23:45;;;;;;;9.23;3.30;;;;;;;17.60;48.97;102527.72;6251140;22;20017;-79
2023/05/24 09:26:12;;;;;;;7.75;2.80;;;;;;;17.33;49.01;102523.00;6248706;22;20017;-79
2023/05/24 09:28:40;;;;;;;8.80;3.42;;;;;;;17.53;50.48;102518.00;6250598;22;20020;-80
2023/05/24 09:31:07;;;;;;;7.80;2.95;;;;;;;18.38;47.84;102526.50;6250844;22;20043;-79
2023/05/24 09:33:34;;;;;;;12.98;3.03;;;;;;;18.63;46.23;102520.78;6250878;22;20024;-77
2023/05/24 09:36:03;;;;;;;7.60;2.97;;;;;;;18.46;46.60;102516.88;6249249;22;20024;-79
2023/05/24 09:38:30;;;;;;;10.85;2.97;;;;;;;18.13;45.81;102516.75;6251005;22;20013;-80
2023/05/24 09:41:01;;;;;;;9.57;3.25;;;;;;;17.89;48.01;102530.06;6249964;22;20092;-80
2023/05/24 09:43:31;;;;;;;9.57;3.58;;;;;;;17.52;48.63;102518.44;6249414;22;20028;-81
2023/05/24 09:46:00;;;;;;;13.25;3.45;;;;;;;17.49;48.88;102522.78;6250852;22;20036;-78
2023/05/24 09:48:27;;;;;;;6.60;3.00;;;;;;;17.39;49.26;102518.56;6250590;22;20399;-79
2023/05/24 09:51:04;;;;;;;6.90;3.60;;;;;;;17.35;49.98;102515.25;6251031;22;20017;-80
2023/05/24 09:53:35;;;;;;;10.20;3.75;;;;;;;17.23;49.12;102519.53;6224111;22;20029;-75
2023/05/24 09:56:08;;;;;;;5.10;2.95;;;;;;;17.05;49.60;102518.72;6250100;22;20017;-79
2023/05/24 09:58:35;;;;;;;9.02;3.33;;;;;;;16.99;51.18;102519.28;6250569;22;20017;-76
2023/05/24 10:01:09;;;;;;;11.48;3.63;;;;;;;17.11;50.49;102527.72;6250289;22;20098;-76
2023/05/24 10:03:36;;;;;;;10.05;3.17;;;;;;;17.25;50.40;102527.91;6250617;22;20047;-77
2023/05/24 10:06:06;;;;;;;9.68;3.15;;;;;;;17.34;49.35;102521.81;6250246;22;20529;-76
2023/05/24 10:08:34;;;;;;;11.55;3.20;;;;;;;17.31;49.61;102528.09;6250713;22;20019;-76
2023/05/24 10:11:05;;;;;;;10.43;3.45;;;;;;;17.19;49.36;102527.00;6248030;22;20095;-77
2023/05/24 10:13:34;;;;;;;12.75;3.35;;;;;;;17.12;50.08;102529.22;6250695;22;20128;-77
2023/05/24 10:16:04;;;;;;;11.18;3.35;;;;;;;17.06;50.40;102517.53;6250518;22;20446;-78
2023/05/24 10:18:31;;;;;;;10.15;3.55;;;;;;;17.03;50.37;102526.47;6249132;22;20016;-77
2023/05/24 10:21:00;;;;;;;11.02;3.22;;;;;;;17.00;50.08;102528.84;6250566;22;20020;-77
2023/05/24 10:23:31;;;;;;;11.80;2.97;;;;;;;17.08;49.96;102525.91;6250311;22;20443;-76
2023/05/24 10:26:10;;;;;;;7.27;2.90;;;;;;;17.23;49.87;102521.47;6250409;22;20399;-78
2023/05/24 10:28:44;;;;;;;11.20;3.10;;;;;;;17.49;49.79;102522.78;6251042;22;20387;-77
2023/05/24 10:31:16;;;;;;;5.10;2.85;;;;;;;17.44;47.94;102520.66;6248728;22;20013;-78
2023/05/24 10:33:47;;;;;;;5.82;2.90;;;;;;;17.44;48.46;102517.97;6250649;22;20744;-78
2023/05/24 10:36:15;;;;;;;7.50;3.22;;;;;;;17.49;49.23;102530.84;6250342;22;20528;-78
2023/05/24 10:38:42;;;;;;;7.05;2.70;;;;;;;17.48;47.74;102518.59;6250762;22;20036;-78
2023/05/24 10:41:11;;;;;;;7.20;2.45;;;;;;;17.71;47.54;102519.25;6247944;22;20044;-78
2023/05/24 10:43:38;;;;;;;8.95;2.97;;;;;;;18.10;46.29;102513.00;6250568;22;20048;-78
2023/05/24 10:46:08;;;;;;;7.55;3.00;;;;;;;18.17;46.77;102520.81;6250622;22;20016;-77
2023/05/24 10:48:39;;;;;;;9.00;3.10;;;;;;;17.98;46.98;102513.91;6250620;22;20012;-77
2023/05/24 10:51:38;;;;;;;7.75;3.17;;;;;;;17.74;47.70;102515.66;6249860;22;20035;-78
2023/05/24 10:54:18;;;;;;;5.97;2.80;;;;;;;17.73;47.54;102525.69;6250206;22;20524;-77
2023/05/24 10:56:49;;;;;;;10.70;2.80;;;;;;;17.97;47.50;102525.91;6249846;22;20021;-77
2023/05/24 10:59:38;;;;;;;8.68;5.50;;;;;;;18.55;46.46;102516.88;6249961;22;20084;-78
2023/05/24 11:02:12;;;;;;;10.45;3.13;;;;;;;18.37;45.40;102520.34;6250273;22;20023;-77
2023/05/24 11:04:47;;;;;;;6.60;2.70;;;;;;;18.04;45.49;102516.75;6248966;22;20434;-77
2023/05/24 11:07:15;;;;;;;8.40;2.70;;;;;;;18.04;45.80;102516.75;6250222;22;20421;-77
2023/05/24 11:09:47;;;;;;;7.28;2.30;;;;;;;18.12;45.75;102516.00;6249848;22;20016;-77
2023/05/24 11:12:19;;;;;;;5.38;2.65;;;;;;;18.26;45.48;102512.72;6226025;22;20454;-77
2023/05/24 11:14:50;;;;;;;7.63;2.83;;;;;;;18.55;45.09;102506.84;6251399;22;20024;-77
2023/05/24 11:17:20;;;;;;;6.18;2.83;;;;;;;18.51;45.04;102508.19;6249939;22;20048;-78
2023/05/24 11:19:53;;;;;;;11.13;2.75;;;;;;;18.42;45.10;102514.34;6250162;22;20143;-75
2023/05/24 11:22:21;;;;;;;7.78;2.97;;;;;;;18.50;45.07;102512.09;6250242;22;20083;-77
2023/05/24 11:24:48;;;;;;;7.20;2.50;;;;;;;18.47;45.14;102513.75;6250200;22;20727;-77
2023/05/24 11:27:15;;;;;;;7.07;3.00;;;;;;;18.46;45.47;102509.53;6249681;22;20084;-77
2023/05/24 11:29:43;;;;;;;7.03;2.60;;;;;;;18.50;45.64;102506.69;6250234;22;20327;-77